Time;durP1;ratioP1;P1;durP2;ratioP2;P2;SDS_P1;SDS_P2;PMS_P1;PMS_P2;Temp;Humidity;BMP_temperature;BMP_pressure;BME280_temperature;BME280_humidity;BME280_pressure;Samples;Min_cycle;Max_cycle;Signal;HPM_P1;HPM_P2
2022/08/14 00:00:29;;;;;;;7.22;5.13;;;22.10;91.90;;;;;;5054520;28;20040;-56
2022/08/14 00:02:55;;;;;;;9.43;5.05;;;22.00;92.00;;;;;;5058464;28;20041;-56
2022/08/14 00:05:21;;;;;;;9.15;5.93;;;22.00;92.10;;;;;;5049721;28;20495;-56
2022/08/14 00:07:48;;;;;;;8.35;5.05;;;22.00;92.20;;;;;;5035265;28;20033;-57
2022/08/14 00:10:17;;;;;;;7.45;4.93;;;21.90;92.30;;;;;;5058676;28;20533;-55
2022/08/14 00:12:47;;;;;;;9.18;6.18;;;21.90;92.30;;;;;;5056610;28;20064;-58
2022/08/14 00:15:27;;;;;;;5.95;5.30;;;21.80;92.40;;;;;;5067072;28;20041;-56
2022/08/14 00:17:53;;;;;;;6.63;5.18;;;21.80;92.40;;;;;;5054466;28;20580;-57
2022/08/14 00:20:23;;;;;;;6.65;5.88;;;21.80;92.70;;;;;;5038991;28;20076;-56
2022/08/14 00:22:48;;;;;;;10.77;5.45;;;21.80;92.70;;;;;;5056826;28;20059;-55
2022/08/14 00:25:14;;;;;;;7.00;6.00;;;21.70;92.70;;;;;;5035364;28;20044;-57
2022/08/14 00:27:40;;;;;;;8.20;5.55;;;21.70;92.80;;;;;;5058068;28;20066;-54
2022/08/14 00:30:08;;;;;;;9.60;6.70;;;21.70;92.90;;;;;;5055249;28;20037;-57
2022/08/14 00:32:35;;;;;;;5.85;5.15;;;21.70;93.00;;;;;;5062605;28;20045;-53
2022/08/14 00:35:02;;;;;;;7.32;6.03;;;21.60;93.10;;;;;;5035626;28;20509;-56
2022/08/14 00:37:29;;;;;;;7.93;6.18;;;21.60;93.20;;;;;;5037644;28;20142;-58
2022/08/14 00:39:55;;;;;;;8.27;5.82;;;21.60;93.30;;;;;;5054088;28;20525;-56
2022/08/14 00:42:22;;;;;;;7.90;5.65;;;21.60;93.40;;;;;;5053842;28;20606;-56
2022/08/14 00:44:48;;;;;;;10.20;6.32;;;21.60;93.60;;;;;;5051384;28;20123;-54
2022/08/14 00:47:15;;;;;;;9.48;6.53;;;21.50;93.70;;;;;;5051109;28;20064;-55
2022/08/14 00:49:41;;;;;;;9.20;6.50;;;21.50;93.90;;;;;;5051250;28;20036;-53
2022/08/14 00:52:08;;;;;;;8.95;6.57;;;21.40;94.00;;;;;;5053328;28;20525;-56
2022/08/14 00:54:36;;;;;;;7.57;6.07;;;21.40;94.20;;;;;;5054665;28;20123;-52
2022/08/14 00:57:03;;;;;;;6.68;5.68;;;21.40;94.30;;;;;;5051678;28;20475;-57
2022/08/14 00:59:29;;;;;;;9.13;6.28;;;21.40;94.30;;;;;;5049660;28;20055;-57
2022/08/14 01:01:57;;;;;;;7.03;6.35;;;21.40;94.40;;;;;;5055718;28;20520;-53
2022/08/14 01:04:23;;;;;;;7.15;5.68;;;21.30;94.40;;;;;;5050381;28;20049;-55
2022/08/14 01:06:50;;;;;;;8.05;6.07;;;21.30;94.50;;;;;;5052354;28;20325;-56
2022/08/14 01:09:21;;;;;;;7.78;6.60;;;21.30;94.60;;;;;;5056149;28;20148;-57
2022/08/14 01:11:51;;;;;;;6.88;5.65;;;21.30;94.60;;;;;;5052574;28;20449;-55
2022/08/14 01:14:19;;;;;;;7.65;6.85;;;21.30;94.60;;;;;;5051294;28;20396;-55
2022/08/14 01:16:46;;;;;;;10.27;6.43;;;21.30;94.80;;;;;;5053655;28;20127;-54
2022/08/14 01:21:57;;;;;;;8.23;5.55;;;21.30;95.00;;;;;;5053809;28;20052;-56
2022/08/14 01:24:24;;;;;;;9.80;6.60;;;21.20;95.00;;;;;;5048216;28;20044;-55
2022/08/14 01:26:50;;;;;;;8.77;6.70;;;21.20;95.10;;;;;;5053253;28;21013;-56
2022/08/14 01:29:18;;;;;;;8.30;6.72;;;21.20;95.20;;;;;;5058267;28;20048;-53
2022/08/14 01:31:45;;;;;;;9.63;6.97;;;21.20;95.30;;;;;;5059626;28;20060;-56
2022/08/14 01:34:11;;;;;;;9.30;6.82;;;21.10;95.60;;;;;;5052469;28;20124;-56
2022/08/14 01:36:37;;;;;;;11.70;7.78;;;21.10;95.70;;;;;;5062000;28;20115;-52
2022/08/14 01:39:13;;;;;;;11.27;6.85;;;21.10;95.90;;;;;;5053701;28;20040;-57
2022/08/14 01:41:51;;;;;;;7.88;7.05;;;21.10;96.00;;;;;;5057708;28;20049;-55
2022/08/14 01:44:16;;;;;;;10.93;6.35;;;21.00;96.10;;;;;;5058490;28;20502;-58
2022/08/14 01:46:44;;;;;;;7.60;6.13;;;21.00;96.30;;;;;;5056611;28;20048;-56
2022/08/14 01:49:14;;;;;;;8.45;6.18;;;20.90;96.40;;;;;;5057323;28;20534;-55
2022/08/14 01:51:40;;;;;;;9.10;6.85;;;20.90;96.60;;;;;;5058638;28;20043;-56
2022/08/14 01:54:20;;;;;;;12.25;7.55;;;20.90;96.70;;;;;;5057338;28;20039;-56
2022/08/14 01:56:46;;;;;;;9.75;7.57;;;20.80;96.80;;;;;;5057703;28;20045;-56
2022/08/14 01:59:22;;;;;;;12.05;7.80;;;20.90;97.00;;;;;;5056509;28;20043;-55
2022/08/14 02:01:50;;;;;;;9.95;7.68;;;20.90;97.00;;;;;;5053926;28;20061;-56
2022/08/14 02:04:18;;;;;;;8.82;7.90;;;20.90;97.10;;;;;;5059960;28;20258;-55
2022/08/14 02:06:45;;;;;;;8.43;7.60;;;20.80;97.20;;;;;;5055509;28;20461;-53
2022/08/14 02:09:10;;;;;;;8.95;8.05;;;20.80;97.40;;;;;;5055861;28;20059;-55
2022/08/14 02:11:36;;;;;;;13.20;8.23;;;20.70;97.50;;;;;;5042322;28;20041;-55
2022/08/14 02:14:05;;;;;;;9.77;8.77;;;20.70;97.60;;;;;;5039001;28;20044;-52
2022/08/14 02:16:35;;;;;;;10.00;8.85;;;20.70;98.00;;;;;;5039988;28;20071;-56
2022/08/14 02:19:03;;;;;;;12.15;7.88;;;20.40;98.10;;;;;;5059147;28;20403;-54
2022/08/14 02:21:33;;;;;;;11.50;8.30;;;20.60;98.30;;;;;;5059583;28;20246;-55
2022/08/14 02:24:00;;;;;;;9.43;8.40;;;20.60;98.40;;;;;;5059130;28;20044;-54
2022/08/14 02:26:41;;;;;;;10.60;8.27;;;20.60;98.60;;;;;;5055695;28;20045;-54
2022/08/14 02:29:12;;;;;;;8.38;7.57;;;20.60;98.70;;;;;;5054827;28;20040;-54
2022/08/14 02:31:44;;;;;;;10.00;9.00;;;20.60;98.70;;;;;;5059343;28;20059;-53
2022/08/14 02:34:19;;;;;;;12.45;9.05;;;20.60;98.90;;;;;;5060824;28;20518;-56
2022/08/14 02:36:49;;;;;;;11.90;9.77;;;20.60;99.00;;;;;;5055159;28;20042;-52
2022/08/14 02:39:16;;;;;;;9.75;8.38;;;20.50;99.20;;;;;;5056049;28;20079;-54
2022/08/14 02:41:42;;;;;;;10.70;9.57;;;20.50;99.40;;;;;;5055490;28;20045;-55
2022/08/14 02:44:09;;;;;;;17.92;8.82;;;20.50;99.50;;;;;;5055659;28;20059;-54
2022/08/14 02:46:40;;;;;;;12.02;10.20;;;20.50;99.60;;;;;;5061146;28;20098;-55
2022/08/14 02:49:06;;;;;;;10.80;9.65;;;20.40;99.60;;;;;;5068486;28;20068;-54
2022/08/14 02:51:33;;;;;;;12.68;9.70;;;20.40;99.80;;;;;;5056967;28;20071;-53
2022/08/14 02:54:00;;;;;;;10.00;8.93;;;20.40;99.80;;;;;;5056371;28;20052;-54
2022/08/14 02:56:27;;;;;;;10.90;9.25;;;20.40;99.90;;;;;;5059030;28;20372;-55
2022/08/14 02:58:55;;;;;;;10.80;9.70;;;20.40;99.90;;;;;;5056349;28;20045;-52
2022/08/14 03:01:23;;;;;;;12.82;10.23;;;20.40;99.90;;;;;;5056039;28;20324;-52
2022/08/14 03:03:49;;;;;;;10.20;9.05;;;20.40;99.90;;;;;;5057261;28;20044;-54
2022/08/14 03:06:19;;;;;;;10.02;9.02;;;20.40;99.90;;;;;;5055603;28;20139;-55
2022/08/14 03:08:47;;;;;;;12.77;10.75;;;20.40;99.90;;;;;;5053922;28;20561;-56
2022/08/14 03:11:13;;;;;;;9.75;8.75;;;20.30;99.90;;;;;;5041063;28;20032;-56
2022/08/14 03:13:46;;;;;;;11.20;10.10;;;20.30;99.90;;;;;;5054544;28;20515;-56
2022/08/14 03:16:13;;;;;;;12.37;11.03;;;20.30;99.90;;;;;;5037566;28;20048;-55
2022/08/14 03:18:41;;;;;;;11.27;9.98;;;20.30;99.90;;;;;;5057057;28;20685;-56
2022/08/14 03:21:12;;;;;;;10.20;9.00;;;20.20;99.90;;;;;;5054967;28;20045;-56
2022/08/14 03:23:39;;;;;;;12.13;9.73;;;20.20;99.90;;;;;;5038005;28;20274;-56
2022/08/14 03:26:14;;;;;;;11.57;10.40;;;20.20;99.90;;;;;;5051830;28;20048;-56
2022/08/14 03:28:42;;;;;;;12.25;9.48;;;20.20;99.90;;;;;;5071911;28;20044;-55
2022/08/14 03:31:08;;;;;;;11.02;9.30;;;20.20;99.90;;;;;;5055941;28;20045;-56
2022/08/14 03:33:39;;;;;;;12.15;10.73;;;20.10;99.90;;;;;;5059245;28;20051;-55
2022/08/14 03:36:15;;;;;;;12.48;10.40;;;20.10;99.90;;;;;;5052266;28;20423;-55
2022/08/14 03:38:42;;;;;;;11.93;10.63;;;20.10;99.90;;;;;;5059127;28;20433;-55
2022/08/14 03:41:13;;;;;;;12.82;11.52;;;20.10;99.90;;;;;;5054163;28;20132;-53
2022/08/14 03:43:51;;;;;;;13.15;10.75;;;20.00;99.90;;;;;;5043741;28;20133;-54
2022/08/14 03:46:17;;;;;;;13.60;9.82;;;20.00;99.90;;;;;;5041449;28;20040;-56
2022/08/14 03:48:44;;;;;;;12.35;11.18;;;20.00;99.90;;;;;;5039820;28;20242;-55
2022/08/14 03:51:12;;;;;;;10.85;9.75;;;20.00;99.90;;;;;;5069569;22;20106;-55
2022/08/14 03:53:42;;;;;;;12.32;11.10;;;20.00;99.90;;;;;;5052148;28;20142;-55
2022/08/14 03:56:13;;;;;;;12.75;11.55;;;20.00;99.90;;;;;;5050359;28;20044;-55
2022/08/14 03:58:45;;;;;;;14.63;11.57;;;19.90;99.90;;;;;;5037947;28;20360;-51
2022/08/14 04:01:21;;;;;;;16.00;11.60;;;19.90;99.90;;;;;;5049752;28;20037;-55
2022/08/14 04:03:47;;;;;;;13.07;11.70;;;19.90;99.90;;;;;;5045424;28;20072;-55
2022/08/14 04:06:14;;;;;;;14.88;11.70;;;19.80;99.90;;;;;;5027821;28;20135;-56
2022/08/14 04:08:40;;;;;;;14.18;12.65;;;19.80;99.90;;;;;;5017032;28;20484;-58
2022/08/14 04:11:07;;;;;;;14.95;12.38;;;19.80;99.90;;;;;;5056166;28;20045;-54
2022/08/14 04:13:39;;;;;;;13.05;11.65;;;19.80;99.90;;;;;;5036157;28;20040;-54
2022/08/14 04:16:07;;;;;;;11.43;10.32;;;19.80;99.90;;;;;;5040159;28;20041;-57
2022/08/14 04:18:38;;;;;;;12.63;11.38;;;19.70;99.90;;;;;;5040824;28;20072;-56
2022/08/14 04:21:04;;;;;;;13.48;11.38;;;19.80;99.90;;;;;;5040987;28;20553;-56
2022/08/14 04:23:32;;;;;;;12.00;10.73;;;19.70;99.90;;;;;;5038386;28;20174;-58
2022/08/14 04:25:59;;;;;;;11.60;10.32;;;19.70;99.90;;;;;;5024357;28;20047;-55
2022/08/14 04:28:25;;;;;;;15.82;10.73;;;19.70;99.90;;;;;;5033561;28;20128;-55
2022/08/14 04:30:51;;;;;;;12.50;10.90;;;19.70;99.90;;;;;;5039212;28;20468;-55
2022/08/14 04:33:16;;;;;;;12.88;9.80;;;19.70;99.90;;;;;;5040941;28;20047;-57
2022/08/14 04:35:42;;;;;;;13.50;11.82;;;19.70;99.90;;;;;;5040511;28;20427;-58
2022/08/14 04:43:40;;;;;;;14.35;11.88;;;19.70;99.90;;;;;;5035477;28;20048;-53
2022/08/14 04:46:10;;;;;;;14.13;11.77;;;19.70;99.90;;;;;;5037350;28;20048;-55
2022/08/14 04:48:37;;;;;;;12.55;11.25;;;19.70;99.90;;;;;;5040859;28;20175;-55
2022/08/14 04:51:05;;;;;;;13.77;11.38;;;19.70;99.90;;;;;;5040098;28;20041;-55
2022/08/14 04:53:32;;;;;;;13.98;12.52;;;19.70;99.90;;;;;;5038276;28;20037;-55
2022/08/14 04:55:58;;;;;;;14.32;12.65;;;19.70;99.90;;;;;;5021432;28;20047;-55
2022/08/14 04:58:27;;;;;;;14.32;12.98;;;19.70;99.90;;;;;;5038102;28;20041;-54
2022/08/14 05:00:55;;;;;;;14.13;12.82;;;19.70;99.90;;;;;;5036932;28;20412;-57
2022/08/14 05:03:25;;;;;;;13.02;11.70;;;19.70;99.90;;;;;;5037453;28;20037;-54
2022/08/14 05:05:54;;;;;;;13.27;11.90;;;19.70;99.90;;;;;;5040628;28;20128;-55
2022/08/14 05:08:19;;;;;;;12.10;10.70;;;19.70;99.90;;;;;;5043220;28;20395;-53
2022/08/14 05:10:50;;;;;;;13.93;12.45;;;19.70;99.90;;;;;;5033363;28;20037;-55
2022/08/14 05:13:17;;;;;;;13.00;11.70;;;19.70;99.90;;;;;;5030079;28;20066;-55
2022/08/14 05:15:45;;;;;;;14.50;12.13;;;19.80;99.90;;;;;;5031332;28;20056;-55
2022/08/14 05:18:14;;;;;;;16.13;11.95;;;19.80;99.90;;;;;;5027278;28;20189;-51
2022/08/14 05:20:44;;;;;;;14.75;12.73;;;19.80;99.90;;;;;;5028309;28;20045;-58
2022/08/14 05:23:13;;;;;;;14.18;12.88;;;19.90;99.90;;;;;;5025803;28;20128;-55
2022/08/14 05:25:39;;;;;;;14.65;12.85;;;19.90;99.90;;;;;;5032414;28;20040;-57
2022/08/14 05:28:20;;;;;;;17.83;12.40;;;19.90;99.90;;;;;;5039348;28;20069;-54
2022/08/14 05:30:48;;;;;;;16.83;12.32;;;19.90;99.90;;;;;;5023881;28;20053;-55
2022/08/14 05:33:28;;;;;;;12.38;10.98;;;20.00;99.90;;;;;;5025872;28;20083;-58
2022/08/14 05:36:03;;;;;;;14.68;11.68;;;20.10;99.90;;;;;;5017471;28;20038;-52
2022/08/14 05:38:43;;;;;;;11.95;10.73;;;20.10;99.90;;;;;;5043101;28;20462;-54
2022/08/14 05:41:16;;;;;;;11.57;10.40;;;20.20;99.90;;;;;;5026678;28;20052;-54
2022/08/14 05:43:44;;;;;;;11.45;10.02;;;20.30;99.90;;;;;;5035590;28;20160;-57
2022/08/14 05:46:12;;;;;;;13.93;11.20;;;20.40;99.90;;;;;;5017238;28;20097;-57
2022/08/14 05:48:38;;;;;;;11.68;10.52;;;20.40;99.90;;;;;;5053479;28;20037;-53
2022/08/14 05:51:03;;;;;;;12.13;10.80;;;20.50;99.90;;;;;;5010477;28;20037;-57
2022/08/14 05:53:29;;;;;;;12.57;11.27;;;20.50;99.90;;;;;;5028146;28;20037;-57
2022/08/14 05:55:56;;;;;;;12.88;9.65;;;20.60;99.90;;;;;;5027658;28;20559;-58
2022/08/14 05:58:22;;;;;;;11.10;10.00;;;20.70;99.90;;;;;;5032064;28;20038;-56
2022/08/14 06:00:48;;;;;;;12.77;11.18;;;20.80;99.90;;;;;;5027016;28;20044;-55
2022/08/14 06:03:16;;;;;;;14.40;11.48;;;20.90;99.90;;;;;;5031295;28;20044;-57
2022/08/14 06:05:44;;;;;;;11.55;10.48;;;21.20;99.90;;;;;;5038945;28;20041;-59
2022/08/14 06:08:18;;;;;;;12.95;11.02;;;21.00;99.90;;;;;;5016198;28;20492;-58
2022/08/14 06:10:44;;;;;;;13.75;10.02;;;21.10;99.90;;;;;;5031201;28;20107;-56
2022/08/14 06:13:11;;;;;;;12.25;11.05;;;21.20;99.90;;;;;;5005480;28;20041;-58
2022/08/14 06:15:37;;;;;;;12.20;11.05;;;21.20;99.90;;;;;;5026815;28;20041;-57
2022/08/14 06:18:03;;;;;;;11.05;8.95;;;21.30;99.90;;;;;;5028805;28;20541;-56
2022/08/14 06:20:31;;;;;;;12.70;9.88;;;21.40;99.90;;;;;;5028969;28;20124;-56
2022/08/14 06:22:58;;;;;;;11.90;10.38;;;21.50;99.90;;;;;;5025170;28;20127;-56
2022/08/14 06:25:25;;;;;;;11.45;9.60;;;21.60;99.90;;;;;;5008844;28;20052;-57
2022/08/14 06:27:51;;;;;;;10.90;9.90;;;21.80;99.90;;;;;;5030822;28;20043;-58
2022/08/14 06:30:23;;;;;;;11.02;9.57;;;21.80;99.90;;;;;;5028271;28;20033;-57
2022/08/14 06:32:49;;;;;;;11.07;9.48;;;21.90;99.90;;;;;;5029217;28;20088;-54
2022/08/14 06:35:19;;;;;;;10.43;9.40;;;22.00;99.90;;;;;;5013522;28;20044;-55
2022/08/14 06:37:53;;;;;;;11.05;10.05;;;22.10;99.90;;;;;;5029488;28;20053;-56
2022/08/14 06:40:29;;;;;;;10.55;9.45;;;22.20;99.90;;;;;;5030115;28;20095;-58
2022/08/14 06:42:57;;;;;;;12.90;9.75;;;22.30;99.90;;;;;;5021999;28;20072;-58
2022/08/14 06:45:23;;;;;;;11.05;9.95;;;22.30;99.90;;;;;;5032437;28;20568;-55
2022/08/14 06:47:49;;;;;;;10.88;8.85;;;22.40;99.90;;;;;;5034154;28;20041;-56
2022/08/14 06:50:20;;;;;;;10.35;9.32;;;22.50;99.90;;;;;;5019043;28;20145;-58
2022/08/14 06:52:46;;;;;;;10.10;8.68;;;22.50;99.90;;;;;;5021067;28;20033;-56
2022/08/14 06:55:15;;;;;;;11.23;9.50;;;22.60;99.90;;;;;;5033333;28;20168;-57
2022/08/14 06:57:46;;;;;;;10.93;8.50;;;22.70;99.90;;;;;;5026435;28;20033;-54
2022/08/14 07:00:14;;;;;;;9.88;8.88;;;22.80;99.90;;;;;;5008767;28;20056;-52
2022/08/14 07:08:35;;;;;;;10.63;9.52;;;23.10;99.90;;;;;;5040295;28;20037;-58
2022/08/14 07:11:03;;;;;;;9.38;8.27;;;23.20;99.80;;;;;;5027602;28;20055;-55
2022/08/14 07:13:28;;;;;;;9.30;8.27;;;23.20;99.60;;;;;;5038975;28;20053;-56
2022/08/14 07:15:56;;;;;;;9.20;8.35;;;23.30;99.80;;;;;;5025434;28;20046;-55
2022/08/14 07:18:25;;;;;;;9.98;8.82;;;23.40;99.50;;;;;;5027510;28;20041;-58
2022/08/14 07:20:52;;;;;;;10.70;8.88;;;23.50;99.20;;;;;;5020975;28;20038;-58
2022/08/14 07:23:18;;;;;;;9.00;8.10;;;23.60;99.10;;;;;;5027790;28;20083;-57
2022/08/14 07:25:44;;;;;;;11.65;8.55;;;23.70;99.10;;;;;;5008769;28;20048;-56
2022/08/14 07:28:25;;;;;;;13.90;9.50;;;23.80;99.10;;;;;;5020642;28;20034;-55
2022/08/14 07:30:56;;;;;;;11.27;9.13;;;23.90;98.80;;;;;;5030154;28;20428;-58
2022/08/14 07:33:27;;;;;;;9.63;8.63;;;24.00;98.90;;;;;;5022120;28;20053;-57
2022/08/14 07:35:54;;;;;;;10.57;8.05;;;24.10;98.60;;;;;;5021395;28;20041;-56
2022/08/14 07:38:21;;;;;;;11.93;9.27;;;24.10;98.40;;;;;;5029645;28;20409;-56
2022/08/14 07:40:49;;;;;;;10.55;9.55;;;24.20;98.20;;;;;;5020771;28;20123;-57
2022/08/14 07:43:15;;;;;;;11.52;9.50;;;24.20;98.10;;;;;;5022082;28;20521;-57
2022/08/14 07:45:41;;;;;;;11.40;10.02;;;24.30;97.90;;;;;;5024752;28;20151;-56
2022/08/14 07:48:07;;;;;;;11.23;9.38;;;24.30;97.70;;;;;;5011086;28;20051;-57
2022/08/14 07:50:33;;;;;;;10.65;9.07;;;24.30;97.70;;;;;;5004864;28;20088;-58
2022/08/14 07:52:59;;;;;;;10.27;9.23;;;24.30;97.90;;;;;;5028569;28;20078;-57
2022/08/14 07:55:25;;;;;;;8.57;7.78;;;24.50;97.80;;;;;;5035488;28;20139;-57
2022/08/14 07:57:51;;;;;;;9.30;8.50;;;24.50;97.70;;;;;;5036113;28;20045;-56
2022/08/14 08:00:21;;;;;;;9.80;8.80;;;24.60;97.90;;;;;;5032442;28;20040;-57
2022/08/14 08:02:48;;;;;;;9.05;7.53;;;24.80;97.50;;;;;;5019068;28;20094;-56
2022/08/14 08:05:15;;;;;;;8.77;7.93;;;24.90;97.50;;;;;;5032634;28;20451;-56
2022/08/14 08:07:43;;;;;;;9.50;7.78;;;25.00;97.20;;;;;;5040201;28;20510;-56
2022/08/14 08:10:30;;;;;;;9.38;7.90;;;25.10;96.90;;;;;;5029152;28;20081;-56
2022/08/14 08:12:58;;;;;;;9.70;8.18;;;25.20;96.70;;;;;;5023509;28;20121;-56
2022/08/14 08:15:25;;;;;;;9.05;7.32;;;25.40;96.70;;;;;;5024947;28;20041;-57
2022/08/14 08:17:52;;;;;;;10.10;7.72;;;25.50;96.60;;;;;;5029395;28;20044;-56
2022/08/14 08:20:20;;;;;;;7.88;7.18;;;25.60;96.30;;;;;;5026241;28;20124;-58
2022/08/14 08:22:47;;;;;;;8.25;7.30;;;25.70;96.40;;;;;;5023877;28;20543;-59
2022/08/14 08:25:13;;;;;;;7.43;6.65;;;25.80;96.30;;;;;;5031401;28;20588;-56
2022/08/14 08:27:39;;;;;;;9.10;7.40;;;25.90;95.80;;;;;;5031288;28;20056;-56
2022/08/14 08:30:09;;;;;;;7.40;6.32;;;26.00;95.70;;;;;;5028055;28;20496;-56
2022/08/14 08:32:42;;;;;;;9.00;7.38;;;26.20;95.60;;;;;;5011798;28;20048;-56
2022/08/14 08:35:19;;;;;;;7.63;6.93;;;26.40;95.10;;;;;;5031884;28;20068;-59
2022/08/14 08:37:47;;;;;;;7.28;6.50;;;26.40;95.10;;;;;;5031541;28;20041;-56
2022/08/14 08:40:26;;;;;;;7.97;7.18;;;26.50;95.20;;;;;;5028712;28;20337;-56
2022/08/14 08:42:52;;;;;;;8.30;6.82;;;26.60;94.90;;;;;;5040926;28;20782;-58
2022/08/14 08:45:20;;;;;;;8.07;7.22;;;26.70;94.70;;;;;;4996564;28;20049;-58
2022/08/14 08:47:47;;;;;;;7.60;6.10;;;26.70;94.20;;;;;;5031127;28;20063;-57
2022/08/14 08:50:18;;;;;;;7.30;6.60;;;26.80;94.00;;;;;;5033639;28;20033;-58
2022/08/14 08:52:52;;;;;;;7.78;6.75;;;26.90;93.80;;;;;;5028867;28;20041;-56
2022/08/14 08:55:25;;;;;;;7.47;6.78;;;26.90;93.30;;;;;;5031488;28;20130;-58
2022/08/14 08:58:03;;;;;;;8.40;7.18;;;27.00;93.80;;;;;;5019310;28;20091;-58
2022/08/14 09:00:32;;;;;;;8.65;6.93;;;27.10;93.60;;;;;;5027223;28;20566;-56
2022/08/14 09:03:09;;;;;;;8.63;6.55;;;27.10;93.00;;;;;;5011599;28;20033;-56
2022/08/14 09:05:48;;;;;;;7.25;6.53;;;27.10;93.10;;;;;;5025369;28;20419;-58
2022/08/14 09:08:20;;;;;;;7.68;6.28;;;27.20;93.70;;;;;;5025375;28;20322;-58
2022/08/14 09:10:46;;;;;;;8.70;7.47;;;27.40;93.90;;;;;;5029521;28;20053;-57
2022/08/14 09:13:14;;;;;;;7.65;6.85;;;27.50;92.20;;;;;;5028606;28;20049;-56
2022/08/14 09:15:41;;;;;;;7.68;6.80;;;27.50;92.60;;;;;;5025147;28;20029;-58
2022/08/14 09:18:08;;;;;;;7.70;7.00;;;27.50;92.70;;;;;;5029269;28;20045;-59
2022/08/14 09:20:38;;;;;;;7.30;6.55;;;27.50;92.30;;;;;;5033791;28;20532;-56
2022/08/14 09:23:04;;;;;;;10.48;6.80;;;27.60;92.20;;;;;;5027539;28;20091;-57
2022/08/14 09:25:30;;;;;;;7.35;6.13;;;27.60;92.10;;;;;;5044388;28;20641;-57
2022/08/14 09:27:56;;;;;;;9.73;6.80;;;27.60;92.30;;;;;;5033323;28;20034;-58
2022/08/14 09:30:22;;;;;;;6.90;6.30;;;27.70;92.00;;;;;;5023532;28;20060;-59
2022/08/14 09:33:03;;;;;;;7.80;5.78;;;27.90;91.80;;;;;;5029286;28;20051;-56
2022/08/14 09:36:06;;;;;;;8.15;6.63;;;28.00;91.60;;;;;;5038366;28;20040;-57
2022/08/14 09:38:54;;;;;;;6.85;6.18;;;28.10;90.80;;;;;;5026072;28;20048;-56
2022/08/14 09:41:44;;;;;;;7.00;5.57;;;28.20;91.40;;;;;;5031913;28;20288;-57
2022/08/14 09:44:28;;;;;;;11.23;5.45;;;28.30;91.20;;;;;;5029550;28;20550;-57
2022/08/14 09:46:56;;;;;;;7.53;6.10;;;28.30;89.30;;;;;;5036137;28;20055;-57
2022/08/14 09:49:33;;;;;;;7.50;5.63;;;28.30;90.30;;;;;;5037885;28;20045;-57
2022/08/14 09:52:17;;;;;;;7.05;5.50;;;28.30;90.20;;;;;;5022462;28;20044;-57
2022/08/14 09:54:45;;;;;;;6.78;5.90;;;28.40;90.10;;;;;;5066987;22;21096;-58
2022/08/14 09:57:29;;;;;;;6.47;5.88;;;28.60;90.00;;;;;;5070504;28;20415;-58
2022/08/14 09:59:55;;;;;;;6.82;5.95;;;28.70;88.60;;;;;;5074988;28;20083;-58
2022/08/14 10:02:28;;;;;;;5.47;4.97;;;28.80;90.10;;;;;;5066368;28;20071;-59
2022/08/14 10:05:09;;;;;;;7.75;6.03;;;28.90;90.10;;;;;;5072272;28;20498;-59
2022/08/14 10:07:53;;;;;;;6.50;5.30;;;29.10;88.50;;;;;;5080172;28;20051;-59
2022/08/14 10:10:38;;;;;;;6.93;5.10;;;29.10;88.50;;;;;;5062176;28;20502;-59
2022/08/14 10:13:06;;;;;;;7.78;5.25;;;29.20;88.70;;;;;;5068461;28;20056;-58
2022/08/14 10:15:37;;;;;;;7.97;5.50;;;29.30;88.40;;;;;;5071720;28;20048;-58
2022/08/14 10:18:08;;;;;;;6.13;5.05;;;29.40;86.70;;;;;;5069694;28;20040;-60
2022/08/14 10:20:40;;;;;;;8.07;5.65;;;29.30;84.50;;;;;;5050575;28;20115;-59
2022/08/14 10:23:18;;;;;;;5.43;4.93;;;29.20;85.80;;;;;;5070614;28;20059;-57
2022/08/14 10:25:49;;;;;;;5.30;4.80;;;29.20;86.40;;;;;;5063641;28;20068;-57
2022/08/14 10:28:17;;;;;;;5.30;4.80;;;29.30;86.00;;;;;;5073368;28;20461;-57
2022/08/14 10:30:47;;;;;;;5.10;4.60;;;29.40;86.20;;;;;;5054670;28;20051;-58
2022/08/14 10:33:31;;;;;;;5.22;4.72;;;29.50;85.60;;;;;;5071210;28;20534;-58
2022/08/14 10:36:02;;;;;;;10.82;4.85;;;29.60;84.80;;;;;;5052576;28;20040;-61
2022/08/14 10:38:35;;;;;;;5.13;4.45;;;29.70;85.40;;;;;;5072436;28;20519;-58
2022/08/14 10:41:15;;;;;;;8.25;4.90;;;29.80;83.40;;;;;;5072530;28;20052;-58
2022/08/14 10:43:44;;;;;;;7.32;5.20;;;29.90;83.40;;;;;;5076970;28;20100;-58
2022/08/14 10:46:17;;;;;;;4.80;4.25;;;29.90;83.30;;;;;;5076229;28;20029;-58
2022/08/14 10:49:02;;;;;;;4.97;4.32;;;30.00;82.90;;;;;;5066271;28;20053;-59
2022/08/14 10:51:33;;;;;;;4.82;3.97;;;30.00;81.80;;;;;;5058019;28;20464;-57
2022/08/14 10:54:08;;;;;;;5.05;4.55;;;30.10;81.30;;;;;;5063921;28;20156;-57
2022/08/14 10:56:34;;;;;;;8.10;5.10;;;30.10;81.90;;;;;;5066219;28;20151;-59
2022/08/14 10:59:07;;;;;;;7.10;4.85;;;30.20;80.70;;;;;;5061465;28;20051;-58
2022/08/14 11:01:37;;;;;;;6.65;4.70;;;30.20;80.70;;;;;;5072915;28;20815;-58
2022/08/14 11:04:03;;;;;;;4.50;4.10;;;30.30;82.70;;;;;;5082338;28;20048;-58
2022/08/14 11:06:30;;;;;;;5.40;4.53;;;30.50;81.40;;;;;;5066935;28;20058;-58
2022/08/14 11:08:56;;;;;;;4.95;4.47;;;30.40;80.50;;;;;;5058593;28;20044;-58
2022/08/14 11:11:26;;;;;;;7.82;4.97;;;30.50;80.30;;;;;;5070719;28;20163;-58
2022/08/14 11:13:56;;;;;;;6.22;4.30;;;30.50;80.30;;;;;;5053896;28;20401;-59
2022/08/14 11:16:23;;;;;;;4.93;4.25;;;30.50;81.10;;;;;;5057018;28;20041;-58
2022/08/14 11:18:50;;;;;;;7.65;4.75;;;30.70;79.90;;;;;;5078774;28;20054;-59
2022/08/14 11:21:19;;;;;;;5.85;4.60;;;30.70;78.90;;;;;;5073027;28;20063;-57
2022/08/14 11:23:47;;;;;;;5.38;4.97;;;30.70;79.00;;;;;;5066533;28;20054;-59
2022/08/14 11:26:17;;;;;;;9.35;4.90;;;30.70;79.60;;;;;;5063252;28;20074;-60
2022/08/14 11:28:46;;;;;;;5.20;4.75;;;30.70;80.10;;;;;;5066387;28;20063;-59
2022/08/14 11:31:12;;;;;;;5.20;4.70;;;30.70;78.50;;;;;;5065857;28;20044;-58
2022/08/14 11:33:40;;;;;;;5.70;4.68;;;30.60;79.70;;;;;;5069116;28;20044;-59
2022/08/14 11:36:08;;;;;;;5.65;4.70;;;30.70;79.50;;;;;;5067824;28;20056;-59
2022/08/14 11:38:45;;;;;;;5.07;4.68;;;30.80;80.20;;;;;;5056997;28;20397;-59
2022/08/14 11:41:12;;;;;;;4.90;4.40;;;30.90;80.50;;;;;;5068024;28;20044;-58
2022/08/14 11:43:43;;;;;;;5.82;4.68;;;31.00;78.70;;;;;;5077476;28;20063;-58
2022/08/14 11:46:12;;;;;;;5.03;4.63;;;31.00;78.50;;;;;;5071809;28;20044;-58
2022/08/14 11:48:52;;;;;;;4.88;4.47;;;31.00;79.20;;;;;;5074388;28;20652;-59
2022/08/14 11:51:26;;;;;;;5.22;4.75;;;31.10;77.10;;;;;;5069651;28;20282;-59
2022/08/14 11:53:53;;;;;;;6.15;4.57;;;31.10;78.40;;;;;;5045369;28;20032;-59
2022/08/14 11:56:20;;;;;;;7.03;4.50;;;31.20;78.10;;;;;;5066019;28;20036;-59
2022/08/14 11:58:51;;;;;;;5.43;4.35;;;31.30;78.30;;;;;;5073628;28;20390;-59
2022/08/14 12:01:25;;;;;;;5.40;4.40;;;31.40;76.90;;;;;;5068100;28;20475;-59
2022/08/14 12:03:51;;;;;;;5.10;4.03;;;31.50;75.40;;;;;;5057528;28;20430;-59
2022/08/14 12:06:19;;;;;;;5.25;4.30;;;31.50;76.90;;;;;;5073222;28;20069;-59
2022/08/14 12:08:45;;;;;;;5.80;4.45;;;31.60;76.10;;;;;;5067758;28;20044;-59
2022/08/14 12:11:14;;;;;;;5.00;4.50;;;31.60;75.00;;;;;;5063707;28;20090;-59
2022/08/14 12:13:41;;;;;;;5.28;4.50;;;31.60;76.10;;;;;;5065632;28;20039;-59
2022/08/14 12:16:09;;;;;;;6.95;4.65;;;31.70;75.20;;;;;;5070948;28;20228;-59
2022/08/14 12:18:46;;;;;;;4.40;4.00;;;31.50;74.70;;;;;;5055884;28;20421;-60
2022/08/14 12:21:23;;;;;;;4.25;3.85;;;31.50;75.60;;;;;;5069563;28;20514;-59
2022/08/14 12:24:07;;;;;;;4.60;4.10;;;31.60;75.70;;;;;;5067697;28;20056;-60
2022/08/14 12:26:33;;;;;;;;;;;31.70;73.60;;;;;;5083518;28;20141;-60
2022/08/14 12:29:09;;;;;;;5.72;4.20;;;31.60;72.80;;;;;;5071468;28;19916;-60
2022/08/14 12:31:37;;;;;;;4.78;3.90;;;31.50;73.10;;;;;;5070334;28;20103;-59
2022/08/14 12:34:07;;;;;;;6.40;4.35;;;31.40;74.10;;;;;;5051875;28;20087;-60
2022/08/14 12:36:34;;;;;;;4.60;4.20;;;31.50;73.30;;;;;;5072105;28;20040;-59
2022/08/14 12:39:03;;;;;;;4.95;3.90;;;31.40;74.10;;;;;;5058950;28;20032;-60
2022/08/14 12:41:33;;;;;;;4.25;3.80;;;31.50;73.20;;;;;;5035991;28;20044;-59
2022/08/14 12:44:02;;;;;;;4.88;4.32;;;31.30;74.30;;;;;;5068712;28;20463;-59
2022/08/14 12:46:40;;;;;;;4.10;3.50;;;31.40;72.90;;;;;;5063690;28;20039;-58
2022/08/14 12:49:17;;;;;;;4.78;3.85;;;31.40;74.80;;;;;;5066302;28;20047;-56
2022/08/14 12:51:54;;;;;;;4.18;3.53;;;31.50;72.50;;;;;;5067120;28;20376;-58
2022/08/14 12:54:20;;;;;;;4.03;3.70;;;31.40;72.60;;;;;;5064216;28;20446;-59
2022/08/14 12:56:46;;;;;;;5.07;3.58;;;31.40;71.90;;;;;;5064690;28;20040;-57
2022/08/14 12:59:14;;;;;;;4.60;3.92;;;31.50;72.40;;;;;;5069682;28;20040;-58
2022/08/14 13:01:44;;;;;;;4.30;3.90;;;31.60;73.20;;;;;;5042722;28;20047;-60
2022/08/14 13:04:15;;;;;;;5.68;3.83;;;31.70;74.70;;;;;;5064050;28;20040;-58
2022/08/14 13:06:46;;;;;;;4.30;3.90;;;31.90;74.20;;;;;;5071600;28;20367;-58